KSBNKCFS

Guest
Details From KSBN - SOUTH BEND RGNL
To KCFS - TUSCOLA AREA
Flight Number -
Tags generated
Created
Modified
Stats Distance 165 nm / 305 km
Max Altitude 15,100 ft / 4,602 m
Waypoints 3
Social Downloads 1
Likes 0
Share VATSIM

Download

Looking for another format? Having issues loading an existing format? Contact us
Advertisement - Login to hide

Notes

Basic altitude profile: - Ascent Rate: 2500ft/min - Ascent Speed: 250kts - Cruise Altitude: 35000ft - Cruise Speed: 420kts - Descent Rate: 1500ft/min - Descent Speed: 250kts Options: - Use NATs: yes - Use PACOTS: yes - Use low airways: yes - Use high airways: no

Route

KSBN LAN KCFS

ID Type Via Altitude Latitude Longitude Leg Dist Tot Dist Heading (true) Name
O KSBN APT - 0 ft / 0 m 41.70922˚ -86.31801˚ - 0 nm - SOUTH BEND RGNL
LAN VOR - 15,100 ft / 4,602 m 42.71739˚ -84.69750˚ 94 nm 94 nm 49° / 51° LANSING VORTAC
O KCFS APT - 0 ft / 0 m 43.45935˚ -83.44465˚ 70 nm 164 nm 51° / 51° TUSCOLA AREA

Altitude Profile

Advertisement - Login to hide

Weather


0- 5 10 15 20 25 30 35+ Temperature / ° C

Clouds and Precipitation
Forecast for 2017-12-15 06:00 UTC. Updated 2 hours ago

Ground ~20,000 ft ~40,000 ft Winds

KSBN

Details ICAO KSBN (SBN)
Name SOUTH BEND RGNL
Region United States
Timezone America/Indiana/Indianapolis (UTC-5.0)
Stats Elevation 799 ft / 244 m (AMSL)
Location 41.709216° -86.318012°
Runways 3
Magnetic Variation 4.934° W

METAR

KSBN 150254Z 23006KT 10SM CLR M09/M12 A3006 RMK AO2 SLP195 T10941122 58001

Decode

TAF

TAF KSBN 142320Z 1500/1524 22005KT P6SM -SN OVC040 FM150500 21004KT P6SM BKN100 FM151500 26014G21KT 5SM -SHSN OVC020

Decode

Departure Runways

ID Width Length Bearing (true) Bearing (mag) Surface Threshold Offset Overrun Length
09L 75 ft / 23 m 4,290 ft / 1,307 m 88.78° 93.71° Asphalt 0 ft / 0 m 0 ft / 0 m
09R 151 ft / 46 m 8,394 ft / 2,559 m 88.78° 93.71° Asphalt 0 ft / 0 m 151 ft / 46 m
18 151 ft / 46 m 7,110 ft / 2,167 m 178.74° 183.67° Asphalt 0 ft / 0 m 151 ft / 46 m
27L 151 ft / 46 m 8,394 ft / 2,559 m 268.80° 273.73° Asphalt 0 ft / 0 m 226 ft / 69 m
27R 75 ft / 23 m 4,290 ft / 1,307 m 268.79° 273.72° Asphalt 0 ft / 0 m 0 ft / 0 m
36 151 ft / 46 m 7,110 ft / 2,167 m 358.74° 3.67° Asphalt 0 ft / 0 m 151 ft / 46 m

KCFS

Details ICAO KCFS
Name TUSCOLA AREA
Region United States
Timezone America/Detroit (UTC-5.0)
Stats Elevation 701 ft / 214 m (AMSL)
Location 43.459348° -83.444648°
Runways 2
Magnetic Variation 7.498° W

METAR

KCFS 150255Z AUTO 00000KT 7SM -SN OVC039 M10/M13 A3003 RMK AO2 T11011130

Decode

TAF

Not found

Destination Runways

ID Width Length Bearing (true) Bearing (mag) Surface Threshold Offset Overrun Length
05 75 ft / 23 m 4,295 ft / 1,309 m 51.68° 59.18° Asphalt 0 ft / 0 m 0 ft / 0 m
12 110 ft / 34 m 2,296 ft / 700 m 120.30° 127.80° Grass 0 ft / 0 m 0 ft / 0 m
23 75 ft / 23 m 4,295 ft / 1,309 m 231.69° 239.19° Asphalt 0 ft / 0 m 0 ft / 0 m
30 110 ft / 34 m 2,296 ft / 700 m 300.30° 307.80° Grass 500 ft / 152 m 0 ft / 0 m